Time;durP1;ratioP1;P1;durP2;ratioP2;P2;SDS_P1;SDS_P2;PMS_P1;PMS_P2;Temp;Humidity;BMP_temperature;BMP_pressure;BME280_temperature;BME280_humidity;BME280_pressure;Samples;Min_cycle;Max_cycle;Signal;HPM_P1;HPM_P2
2023/02/25 00:00:38;;;;;;;7.97;5.93;;;;;;;;;;5060116;28;20234;-63
2023/02/25 00:03:07;;;;;;;7.50;5.37;;;;;;;;;;5059680;28;20263;-63
2023/02/25 00:05:38;;;;;;;6.77;5.37;;;;;;;;;;5059583;28;20214;-63
2023/02/25 00:08:06;;;;;;;10.60;6.70;;;;;;;;;;5060035;28;20298;-63
2023/02/25 00:10:35;;;;;;;6.10;4.50;;;;;;;;;;5059633;28;20655;-64
2023/02/25 00:13:04;;;;;;;5.13;4.10;;;;;;;;;;5059681;28;20626;-63
2023/02/25 00:15:44;;;;;;;4.30;3.83;;;;;;;;;;5059926;28;20211;-63
2023/02/25 00:18:12;;;;;;;5.13;3.60;;;;;;;;;;5059649;28;20242;-63
2023/02/25 00:20:41;;;;;;;3.33;3.00;;;;;;;;;;5055621;28;20199;-63
2023/02/25 00:23:09;;;;;;;5.67;3.13;;;;;;;;;;5039566;28;20766;-64
2023/02/25 00:25:38;;;;;;;4.83;3.97;;;;;;;;;;5039591;28;20207;-63
2023/02/25 00:28:06;;;;;;;5.57;3.27;;;;;;;;;;5039778;28;20296;-64
2023/02/25 00:30:35;;;;;;;5.07;2.90;;;;;;;;;;5039647;28;20310;-63
2023/02/25 00:33:04;;;;;;;5.27;3.47;;;;;;;;;;5039294;28;20318;-63
2023/02/25 00:35:33;;;;;;;4.17;2.50;;;;;;;;;;5039220;28;20235;-63
2023/02/25 00:38:01;;;;;;;3.40;2.80;;;;;;;;;;5042867;28;20685;-63
2023/02/25 00:40:43;;;;;;;2.70;2.00;;;;;;;;;;5039532;28;20236;-63
2023/02/25 00:43:11;;;;;;;2.60;2.00;;;;;;;;;;5039096;28;20594;-64
2023/02/25 00:45:40;;;;;;;3.33;2.33;;;;;;;;;;5039445;28;20249;-64
2023/02/25 00:48:08;;;;;;;2.27;1.70;;;;;;;;;;5038913;28;20659;-64
2023/02/25 00:50:38;;;;;;;2.03;1.50;;;;;;;;;;5039161;28;20263;-64
2023/02/25 00:53:06;;;;;;;1.60;1.43;;;;;;;;;;5042811;28;20305;-64
2023/02/25 00:55:34;;;;;;;3.47;1.53;;;;;;;;;;5059201;28;20207;-63
2023/02/25 00:58:04;;;;;;;1.67;1.57;;;;;;;;;;5058132;28;20206;-63
2023/02/25 01:00:31;;;;;;;1.70;1.60;;;;;;;;;;5058745;28;20285;-63
2023/02/25 01:03:17;;;;;;;2.57;1.53;;;;;;;;;;5058408;28;20626;-63
2023/02/25 01:05:48;;;;;;;1.27;1.17;;;;;;;;;;5058924;28;20211;-63
2023/02/25 01:08:17;;;;;;;1.53;1.43;;;;;;;;;;5058967;28;20203;-66
2023/02/25 01:10:45;;;;;;;1.53;1.43;;;;;;;;;;5058592;28;20222;-64
2023/02/25 01:13:15;;;;;;;2.10;1.50;;;;;;;;;;5058553;28;20249;-64
2023/02/25 01:15:43;;;;;;;1.13;1.13;;;;;;;;;;5058490;28;20203;-64
2023/02/25 01:18:11;;;;;;;1.17;1.10;;;;;;;;;;5058235;28;20666;-64
2023/02/25 01:20:40;;;;;;;1.10;1.00;;;;;;;;;;5055544;28;20208;-63
2023/02/25 01:23:08;;;;;;;1.20;1.10;;;;;;;;;;5038660;28;20315;-64
2023/02/25 01:25:39;;;;;;;1.30;1.10;;;;;;;;;;5038429;28;20203;-64
2023/02/25 01:28:07;;;;;;;1.00;1.00;;;;;;;;;;5038681;28;20261;-63
2023/02/25 01:30:40;;;;;;;1.30;1.20;;;;;;;;;;5038449;28;20255;-63
2023/02/25 01:33:08;;;;;;;1.40;1.23;;;;;;;;;;5038030;28;20719;-63
2023/02/25 01:35:36;;;;;;;1.57;1.23;;;;;;;;;;5038017;28;20681;-63
2023/02/25 01:38:04;;;;;;;3.27;1.30;;;;;;;;;;5042527;28;20202;-63
2023/02/25 01:40:32;;;;;;;1.00;1.00;;;;;;;;;;5038490;28;20215;-64
2023/02/25 01:43:00;;;;;;;1.37;1.27;;;;;;;;;;5038246;28;20227;-64
2023/02/25 01:45:29;;;;;;;2.00;1.40;;;;;;;;;;5038138;28;20207;-64
2023/02/25 01:48:01;;;;;;;1.40;1.30;;;;;;;;;;5037978;28;20291;-64
2023/02/25 01:50:31;;;;;;;1.27;1.17;;;;;;;;;;5038083;28;20223;-64
2023/02/25 01:53:01;;;;;;;1.20;1.10;;;;;;;;;;5040652;28;20642;-64
2023/02/25 01:55:29;;;;;;;1.00;1.00;;;;;;;;;;5057937;28;20570;-64
2023/02/25 01:57:58;;;;;;;0.90;0.90;;;;;;;;;;5058070;28;20219;-64
2023/02/25 02:00:27;;;;;;;1.00;1.00;;;;;;;;;;5058118;28;20213;-64
2023/02/25 02:02:55;;;;;;;1.13;1.00;;;;;;;;;;5057619;28;20309;-64
2023/02/25 02:05:27;;;;;;;1.80;1.20;;;;;;;;;;5057938;28;20274;-64
2023/02/25 02:07:55;;;;;;;1.07;1.03;;;;;;;;;;5057486;28;20207;-64
2023/02/25 02:10:23;;;;;;;1.20;1.10;;;;;;;;;;5057273;28;20207;-64
2023/02/25 02:12:51;;;;;;;2.37;1.00;;;;;;;;;;5057760;28;20258;-64
2023/02/25 02:15:19;;;;;;;1.47;1.13;;;;;;;;;;5057810;28;20742;-64
2023/02/25 02:17:51;;;;;;;1.47;1.10;;;;;;;;;;5057324;28;20544;-63
2023/02/25 02:20:21;;;;;;;1.23;1.10;;;;;;;;;;5056466;28;20211;-64
2023/02/25 02:23:02;;;;;;;2.13;1.23;;;;;;;;;;5037835;28;20223;-64
2023/02/25 02:25:41;;;;;;;1.20;1.20;;;;;;;;;;5037822;28;20211;-64
2023/02/25 02:28:31;;;;;;;1.40;1.30;;;;;;;;;;5037929;28;20207;-64
2023/02/25 02:31:23;;;;;;;1.30;1.20;;;;;;;;;;5028611;28;20230;-64
2023/02/25 02:33:58;;;;;;;1.10;1.10;;;;;;;;;;5031899;28;20253;-64
2023/02/25 02:36:30;;;;;;;1.47;1.37;;;;;;;;;;5037280;28;20270;-63
2023/02/25 02:39:02;;;;;;;1.57;1.47;;;;;;;;;;5041149;28;20213;-63
2023/02/25 02:41:33;;;;;;;1.63;1.53;;;;;;;;;;5037470;28;20214;-63
2023/02/25 02:44:05;;;;;;;1.93;1.40;;;;;;;;;;5037637;28;20240;-64
2023/02/25 02:46:34;;;;;;;1.57;1.47;;;;;;;;;;5037118;28;20204;-64
2023/02/25 02:49:06;;;;;;;1.00;1.00;;;;;;;;;;5037593;28;20238;-63
2023/02/25 02:51:35;;;;;;;1.50;1.40;;;;;;;;;;5037115;28;20216;-63
2023/02/25 02:54:05;;;;;;;1.33;1.33;;;;;;;;;;5048972;28;20262;-64
2023/02/25 02:56:35;;;;;;;1.20;1.10;;;;;;;;;;5057470;28;20203;-64
2023/02/25 02:59:05;;;;;;;1.63;1.57;;;;;;;;;;5057512;28;20245;-64
2023/02/25 03:01:34;;;;;;;1.20;1.10;;;;;;;;;;5057117;28;20206;-64
2023/02/25 03:04:06;;;;;;;1.27;1.10;;;;;;;;;;5057300;28;20288;-64
2023/02/25 03:06:35;;;;;;;1.70;1.20;;;;;;;;;;5057068;28;20306;-63
2023/02/25 03:09:04;;;;;;;1.30;1.17;;;;;;;;;;5057087;28;20580;-64
2023/02/25 03:11:32;;;;;;;1.07;1.07;;;;;;;;;;5057296;28;20222;-64
2023/02/25 03:14:00;;;;;;;1.67;1.30;;;;;;;;;;5057209;28;20227;-64
2023/02/25 03:16:31;;;;;;;1.00;1.00;;;;;;;;;;5057045;28;20221;-64
2023/02/25 03:19:02;;;;;;;1.17;1.00;;;;;;;;;;5057222;28;20202;-63
2023/02/25 03:21:35;;;;;;;1.00;1.00;;;;;;;;;;5049819;28;20242;-64
2023/02/25 03:24:04;;;;;;;1.17;1.10;;;;;;;;;;5040880;28;20239;-64
2023/02/25 03:26:33;;;;;;;1.73;1.33;;;;;;;;;;5040702;28;20690;-64
2023/02/25 03:29:01;;;;;;;1.10;1.10;;;;;;;;;;5040875;28;20286;-64
2023/02/25 03:31:31;;;;;;;1.50;1.40;;;;;;;;;;5040511;28;20228;-64
2023/02/25 03:34:02;;;;;;;1.30;1.30;;;;;;;;;;5040685;28;20227;-63
2023/02/25 03:36:33;;;;;;;1.50;1.40;;;;;;;;;;5040327;28;20269;-63
2023/02/25 03:39:05;;;;;;;3.03;1.60;;;;;;;;;;5044945;28;20634;-64
2023/02/25 03:41:35;;;;;;;1.53;1.43;;;;;;;;;;5040396;28;20671;-64
2023/02/25 03:44:05;;;;;;;1.77;1.50;;;;;;;;;;5040326;28;20297;-64
2023/02/25 03:46:34;;;;;;;2.40;1.40;;;;;;;;;;5040042;28;20302;-64
2023/02/25 03:49:04;;;;;;;1.60;1.10;;;;;;;;;;5040573;28;20218;-63
2023/02/25 03:51:34;;;;;;;1.40;1.30;;;;;;;;;;5039960;28;20220;-63
2023/02/25 03:54:02;;;;;;;1.20;1.20;;;;;;;;;;5051755;28;20227;-63
2023/02/25 03:56:30;;;;;;;1.60;1.40;;;;;;;;;;5060247;28;20203;-64
2023/02/25 03:58:58;;;;;;;1.13;1.13;;;;;;;;;;5060069;28;20705;-64
2023/02/25 04:01:29;;;;;;;1.10;1.10;;;;;;;;;;5059658;28;20238;-64
2023/02/25 04:03:57;;;;;;;1.40;1.30;;;;;;;;;;5060172;28;20223;-63
2023/02/25 04:06:25;;;;;;;2.27;1.37;;;;;;;;;;5059791;28;20206;-63
2023/02/25 04:08:54;;;;;;;2.60;1.13;;;;;;;;;;5059780;28;20218;-63
2023/02/25 04:11:22;;;;;;;1.20;1.13;;;;;;;;;;5059956;28;20217;-63
2023/02/25 04:13:50;;;;;;;1.30;1.20;;;;;;;;;;5059687;28;20579;-63
2023/02/25 04:16:18;;;;;;;1.33;1.23;;;;;;;;;;5059839;28;20213;-64
2023/02/25 04:18:46;;;;;;;1.27;1.20;;;;;;;;;;5059543;28;20659;-64
2023/02/25 04:21:24;;;;;;;1.30;1.20;;;;;;;;;;5050388;28;20208;-64
2023/02/25 04:23:54;;;;;;;1.33;1.30;;;;;;;;;;5039573;28;20699;-64
2023/02/25 04:26:22;;;;;;;3.77;1.30;;;;;;;;;;5039579;28;20211;-63
2023/02/25 04:28:50;;;;;;;1.40;1.30;;;;;;;;;;5039780;28;20265;-64
2023/02/25 04:31:18;;;;;;;1.33;1.23;;;;;;;;;;5038767;28;20212;-64
2023/02/25 04:33:48;;;;;;;2.00;1.10;;;;;;;;;;5038878;28;20235;-64
2023/02/25 04:36:23;;;;;;;2.73;1.03;;;;;;;;;;5039682;28;20247;-64
2023/02/25 04:38:52;;;;;;;3.10;1.50;;;;;;;;;;5041967;28;20666;-64
2023/02/25 04:41:21;;;;;;;1.43;1.20;;;;;;;;;;5039536;28;20204;-64
2023/02/25 04:43:49;;;;;;;3.47;1.10;;;;;;;;;;5039216;28;20663;-64
2023/02/25 04:46:17;;;;;;;2.67;1.20;;;;;;;;;;5039307;28;20208;-64
2023/02/25 04:48:45;;;;;;;1.10;1.00;;;;;;;;;;5039106;28;20722;-64
2023/02/25 04:51:14;;;;;;;2.63;1.27;;;;;;;;;;5038862;28;20239;-64
2023/02/25 04:53:42;;;;;;;1.53;1.20;;;;;;;;;;5047644;28;20237;-63
2023/02/25 04:56:10;;;;;;;1.30;1.20;;;;;;;;;;5058910;28;20250;-62
2023/02/25 04:58:40;;;;;;;1.57;1.47;;;;;;;;;;5058951;28;20234;-63
2023/02/25 05:01:08;;;;;;;3.27;1.47;;;;;;;;;;5059100;28;20209;-64
2023/02/25 05:03:36;;;;;;;1.53;1.43;;;;;;;;;;5058810;28;20258;-64
2023/02/25 05:06:05;;;;;;;3.97;1.53;;;;;;;;;;5058870;28;20211;-63
2023/02/25 05:08:33;;;;;;;2.00;1.80;;;;;;;;;;5058930;28;20213;-63
2023/02/25 05:11:02;;;;;;;2.27;1.70;;;;;;;;;;5058581;28;20215;-63
2023/02/25 05:13:29;;;;;;;2.27;2.10;;;;;;;;;;5057850;28;20227;-63
2023/02/25 05:16:06;;;;;;;3.23;1.70;;;;;;;;;;5040169;28;20211;-64
2023/02/25 05:18:35;;;;;;;1.97;1.60;;;;;;;;;;5038601;28;20208;-64
2023/02/25 05:21:05;;;;;;;1.70;1.60;;;;;;;;;;5050030;28;20234;-64
2023/02/25 05:23:33;;;;;;;2.17;1.70;;;;;;;;;;5038625;28;20228;-63
2023/02/25 05:26:01;;;;;;;2.80;1.90;;;;;;;;;;5038523;28;20659;-64
2023/02/25 05:28:29;;;;;;;1.23;1.23;;;;;;;;;;5038605;28;20242;-64
2023/02/25 05:30:57;;;;;;;1.33;1.23;;;;;;;;;;5038402;28;20235;-64
2023/02/25 05:33:26;;;;;;;2.80;1.30;;;;;;;;;;5040765;28;20231;-64
2023/02/25 05:35:54;;;;;;;2.63;1.57;;;;;;;;;;5048280;28;20227;-64
2023/02/25 05:38:22;;;;;;;1.43;1.33;;;;;;;;;;5048491;28;20207;-64
2023/02/25 05:40:51;;;;;;;1.40;1.30;;;;;;;;;;5038166;28;20212;-64
2023/02/25 05:43:18;;;;;;;3.40;1.57;;;;;;;;;;5037764;28;20263;-64
2023/02/25 05:45:52;;;;;;;2.00;1.80;;;;;;;;;;5043955;28;20200;-64
2023/02/25 05:48:20;;;;;;;1.53;1.43;;;;;;;;;;5046548;28;20231;-64
2023/02/25 05:50:50;;;;;;;1.50;1.40;;;;;;;;;;5047732;28;20237;-64
2023/02/25 05:53:18;;;;;;;1.70;1.60;;;;;;;;;;5048135;28;20322;-63
2023/02/25 05:55:46;;;;;;;3.10;1.43;;;;;;;;;;5046159;28;20237;-63
2023/02/25 05:58:14;;;;;;;1.53;1.43;;;;;;;;;;5046418;28;20199;-64
2023/02/25 06:00:43;;;;;;;1.70;1.60;;;;;;;;;;5047771;28;20295;-64
2023/02/25 06:03:11;;;;;;;1.50;1.40;;;;;;;;;;5048294;28;20215;-63
2023/02/25 06:05:40;;;;;;;2.27;1.50;;;;;;;;;;5048238;28;20210;-63
2023/02/25 06:08:10;;;;;;;1.50;1.40;;;;;;;;;;5049939;28;20767;-63
2023/02/25 06:10:38;;;;;;;1.77;1.50;;;;;;;;;;5038023;28;20211;-61
2023/02/25 06:13:07;;;;;;;1.37;1.27;;;;;;;;;;5048766;28;20227;-62
2023/02/25 06:15:36;;;;;;;1.47;1.37;;;;;;;;;;5046772;28;20651;-61
2023/02/25 06:18:05;;;;;;;2.57;1.63;;;;;;;;;;5044846;28;20290;-62
2023/02/25 06:20:34;;;;;;;3.53;1.33;;;;;;;;;;5052515;28;20219;-62
2023/02/25 06:23:02;;;;;;;1.80;1.53;;;;;;;;;;5042771;28;20219;-62
2023/02/25 06:25:31;;;;;;;1.80;1.70;;;;;;;;;;5037890;28;20219;-62
2023/02/25 06:28:00;;;;;;;1.57;1.47;;;;;;;;;;5037290;28;20560;-62
2023/02/25 06:30:28;;;;;;;2.13;1.40;;;;;;;;;;5051314;28;20539;-62
2023/02/25 06:32:56;;;;;;;1.30;1.20;;;;;;;;;;5040833;28;20575;-62
2023/02/25 06:35:24;;;;;;;1.70;1.50;;;;;;;;;;5037186;28;20293;-63
2023/02/25 06:37:54;;;;;;;1.70;1.50;;;;;;;;;;5039723;28;20714;-63
2023/02/25 06:40:23;;;;;;;1.50;1.40;;;;;;;;;;5046887;28;20290;-61
2023/02/25 06:42:52;;;;;;;1.97;1.60;;;;;;;;;;5037204;28;20231;-63
2023/02/25 06:45:20;;;;;;;1.47;1.37;;;;;;;;;;5037283;28;20240;-63
2023/02/25 06:47:48;;;;;;;5.53;1.67;;;;;;;;;;5054452;28;20206;-63
2023/02/25 06:50:17;;;;;;;1.40;1.27;;;;;;;;;;5057001;28;20658;-63
2023/02/25 06:52:45;;;;;;;1.50;1.40;;;;;;;;;;5056337;28;20310;-62
2023/02/25 06:55:13;;;;;;;1.50;1.10;;;;;;;;;;5038373;28;20322;-62
2023/02/25 06:57:41;;;;;;;1.77;1.30;;;;;;;;;;5040867;28;20645;-62
2023/02/25 07:00:11;;;;;;;1.33;1.27;;;;;;;;;;5041222;28;20214;-62
2023/02/25 07:02:39;;;;;;;1.27;1.17;;;;;;;;;;5040988;28;20624;-62
2023/02/25 07:05:07;;;;;;;1.30;1.20;;;;;;;;;;5060224;28;20517;-62
2023/02/25 07:07:35;;;;;;;1.10;1.10;;;;;;;;;;5060885;28;20203;-62
2023/02/25 07:10:03;;;;;;;1.10;1.10;;;;;;;;;;5061043;28;20210;-63
2023/02/25 07:12:31;;;;;;;1.47;1.37;;;;;;;;;;5060740;28;20206;-62
2023/02/25 07:14:59;;;;;;;1.43;1.37;;;;;;;;;;5052160;28;20270;-63
2023/02/25 07:17:29;;;;;;;1.47;1.27;;;;;;;;;;5046362;28;20250;-61
2023/02/25 07:19:57;;;;;;;5.90;1.60;;;;;;;;;;5050366;28;20200;-61
2023/02/25 07:22:25;;;;;;;1.50;1.40;;;;;;;;;;5046517;28;20214;-61
2023/02/25 07:24:53;;;;;;;1.93;1.63;;;;;;;;;;5051961;28;20653;-61
2023/02/25 07:27:21;;;;;;;1.83;1.60;;;;;;;;;;5050768;28;20203;-63
2023/02/25 07:29:49;;;;;;;2.13;1.93;;;;;;;;;;5049208;28;20195;-62
2023/02/25 07:32:17;;;;;;;1.70;1.60;;;;;;;;;;5048695;28;20257;-62
2023/02/25 07:34:46;;;;;;;2.07;1.87;;;;;;;;;;5048084;28;20234;-62
2023/02/25 07:37:15;;;;;;;2.40;2.10;;;;;;;;;;5051996;28;20207;-62
2023/02/25 07:39:42;;;;;;;1.70;1.60;;;;;;;;;;5048455;28;20202;-62
2023/02/25 07:42:13;;;;;;;2.43;1.80;;;;;;;;;;5048081;28;20210;-62
2023/02/25 07:44:41;;;;;;;2.53;2.00;;;;;;;;;;5051015;28;20218;-62
2023/02/25 07:47:09;;;;;;;2.57;1.87;;;;;;;;;;5050381;28;20671;-62
2023/02/25 07:49:37;;;;;;;2.40;1.80;;;;;;;;;;5048684;28;20577;-62
2023/02/25 07:52:07;;;;;;;1.80;1.70;;;;;;;;;;5044624;28;20207;-61
2023/02/25 07:54:35;;;;;;;3.00;1.90;;;;;;;;;;5052926;28;20318;-61
2023/02/25 07:57:03;;;;;;;3.70;2.70;;;;;;;;;;5039444;28;20686;-61
2023/02/25 07:59:32;;;;;;;4.33;2.30;;;;;;;;;;5041669;28;20218;-62
2023/02/25 08:02:00;;;;;;;2.37;1.93;;;;;;;;;;5039723;28;20218;-63
2023/02/25 08:04:29;;;;;;;1.80;1.70;;;;;;;;;;5041386;28;20246;-63
2023/02/25 08:06:57;;;;;;;3.03;2.13;;;;;;;;;;5050579;28;20202;-63
2023/02/25 08:09:26;;;;;;;2.20;1.93;;;;;;;;;;5051766;28;20286;-61
2023/02/25 08:11:54;;;;;;;2.23;2.03;;;;;;;;;;5046525;28;20239;-63
2023/02/25 08:14:22;;;;;;;2.77;2.53;;;;;;;;;;5039653;28;20232;-63
2023/02/25 08:16:52;;;;;;;5.03;2.40;;;;;;;;;;5039804;28;20248;-62
2023/02/25 08:19:20;;;;;;;3.97;3.03;;;;;;;;;;5043394;28;20759;-61
2023/02/25 08:21:48;;;;;;;4.37;2.97;;;;;;;;;;5046922;28;20344;-63
2023/02/25 08:24:19;;;;;;;4.73;3.27;;;;;;;;;;5039395;28;20220;-62
2023/02/25 08:26:49;;;;;;;2.80;2.60;;;;;;;;;;5039753;28;20956;-63
2023/02/25 08:29:17;;;;;;;3.97;3.10;;;;;;;;;;5039787;28;20294;-63
2023/02/25 08:31:47;;;;;;;3.30;2.83;;;;;;;;;;5039382;28;20265;-63
2023/02/25 08:34:15;;;;;;;4.50;3.57;;;;;;;;;;5045705;28;20233;-63
2023/02/25 08:36:44;;;;;;;6.23;3.30;;;;;;;;;;5039153;28;20240;-63
2023/02/25 08:39:12;;;;;;;5.27;3.90;;;;;;;;;;5045798;28;20210;-63
2023/02/25 08:41:40;;;;;;;5.13;3.60;;;;;;;;;;5049777;28;20210;-63
2023/02/25 08:44:09;;;;;;;5.73;3.77;;;;;;;;;;5048400;28;20281;-63
2023/02/25 08:46:38;;;;;;;5.47;3.50;;;;;;;;;;5046023;28;20234;-63
2023/02/25 08:49:06;;;;;;;5.00;4.07;;;;;;;;;;5059031;28;20207;-62
2023/02/25 08:51:34;;;;;;;10.07;4.20;;;;;;;;;;5047059;28;20722;-63
2023/02/25 08:54:03;;;;;;;6.17;4.07;;;;;;;;;;5038062;28;20223;-64
2023/02/25 08:56:31;;;;;;;6.00;3.93;;;;;;;;;;5037831;28;20226;-62
2023/02/25 08:58:59;;;;;;;5.53;3.97;;;;;;;;;;5056425;28;20305;-60
2023/02/25 09:01:43;;;;;;;5.93;4.27;;;;;;;;;;5057590;28;20242;-60
2023/02/25 09:04:12;;;;;;;7.87;4.70;;;;;;;;;;5057678;28;20629;-61
2023/02/25 09:06:40;;;;;;;6.97;3.67;;;;;;;;;;5057369;28;20214;-61
2023/02/25 09:09:08;;;;;;;7.90;4.30;;;;;;;;;;5045607;28;20211;-61
2023/02/25 09:11:38;;;;;;;5.23;4.30;;;;;;;;;;5037743;28;20204;-61
2023/02/25 09:14:06;;;;;;;7.10;4.73;;;;;;;;;;5037432;28;20298;-61
2023/02/25 09:16:36;;;;;;;7.43;4.57;;;;;;;;;;5043860;28;20700;-61
2023/02/25 09:19:05;;;;;;;5.87;4.50;;;;;;;;;;5056499;28;20621;-62
2023/02/25 09:21:39;;;;;;;6.63;4.07;;;;;;;;;;5037375;28;20654;-60
2023/02/25 09:24:07;;;;;;;6.80;4.70;;;;;;;;;;5045017;28;20253;-63
2023/02/25 09:26:35;;;;;;;6.20;4.60;;;;;;;;;;5057505;28;20268;-61
2023/02/25 09:29:04;;;;;;;6.10;4.40;;;;;;;;;;5057175;28;20221;-63
2023/02/25 09:31:33;;;;;;;8.67;5.13;;;;;;;;;;5057057;28;20250;-63
2023/02/25 09:34:03;;;;;;;5.63;4.13;;;;;;;;;;5052363;28;20223;-63
2023/02/25 09:36:32;;;;;;;13.37;5.57;;;;;;;;;;5043846;28;20262;-63
2023/02/25 09:39:00;;;;;;;7.27;4.97;;;;;;;;;;5042267;28;20242;-63
2023/02/25 09:41:31;;;;;;;7.20;4.83;;;;;;;;;;5050951;28;20207;-63
2023/02/25 09:44:04;;;;;;;8.27;4.83;;;;;;;;;;5038046;28;20224;-63
2023/02/25 09:46:33;;;;;;;7.87;5.00;;;;;;;;;;5044520;28;20199;-63
2023/02/25 09:49:08;;;;;;;8.90;5.47;;;;;;;;;;5049278;28;20253;-63
2023/02/25 09:51:38;;;;;;;9.97;4.90;;;;;;;;;;5054612;28;20233;-63
2023/02/25 09:54:13;;;;;;;8.67;4.70;;;;;;;;;;5057777;28;20229;-63
2023/02/25 09:56:41;;;;;;;6.43;4.37;;;;;;;;;;5057461;28;20221;-63
2023/02/25 09:59:13;;;;;;;7.67;4.57;;;;;;;;;;5057319;28;20213;-63
2023/02/25 10:01:44;;;;;;;8.47;5.37;;;;;;;;;;5057130;28;20242;-62
2023/02/25 10:04:17;;;;;;;12.03;5.97;;;;;;;;;;5057426;28;20249;-63
2023/02/25 10:06:46;;;;;;;6.27;5.17;;;;;;;;;;5057719;28;20199;-63
2023/02/25 10:09:18;;;;;;;7.50;5.07;;;;;;;;;;5057238;28;20202;-63
2023/02/25 10:11:50;;;;;;;9.27;5.27;;;;;;;;;;5057290;28;20203;-62
2023/02/25 10:14:24;;;;;;;11.50;5.57;;;;;;;;;;5041163;28;20235;-63
2023/02/25 10:16:54;;;;;;;7.07;4.17;;;;;;;;;;5037236;28;20235;-63
2023/02/25 10:19:33;;;;;;;7.70;5.03;;;;;;;;;;5041716;28;20245;-63
2023/02/25 10:22:13;;;;;;;5.83;4.60;;;;;;;;;;5044135;28;20245;-62
2023/02/25 10:24:44;;;;;;;6.63;4.23;;;;;;;;;;5037745;28;20227;-63
2023/02/25 10:27:19;;;;;;;6.83;5.50;;;;;;;;;;5037762;28;20211;-62
2023/02/25 10:29:49;;;;;;;13.30;5.67;;;;;;;;;;5037848;28;20575;-62
2023/02/25 10:32:18;;;;;;;8.23;5.43;;;;;;;;;;5050358;28;20202;-62
2023/02/25 10:34:48;;;;;;;7.47;5.97;;;;;;;;;;5061118;28;20257;-77
2023/02/25 10:37:19;;;;;;;13.37;6.23;;;;;;;;;;5041673;28;20203;-63
2023/02/25 10:39:47;;;;;;;9.77;5.70;;;;;;;;;;5046579;28;20286;-63
2023/02/25 10:42:16;;;;;;;8.70;6.37;;;;;;;;;;5042078;28;20208;-63
2023/02/25 10:44:44;;;;;;;9.77;6.00;;;;;;;;;;5041254;28;20234;-63
2023/02/25 10:47:15;;;;;;;10.17;5.90;;;;;;;;;;5040714;28;20211;-63
2023/02/25 10:50:03;;;;;;;12.17;5.87;;;;;;;;;;5053237;28;20238;-63
2023/02/25 10:52:33;;;;;;;11.47;6.60;;;;;;;;;;5048562;28;20739;-63
2023/02/25 10:55:01;;;;;;;11.53;6.27;;;;;;;;;;5041263;28;20271;-63
2023/02/25 10:57:35;;;;;;;9.50;6.20;;;;;;;;;;5041251;28;20211;-63
2023/02/25 11:00:12;;;;;;;10.40;7.37;;;;;;;;;;5041007;28;20215;-63
2023/02/25 11:02:41;;;;;;;11.33;7.07;;;;;;;;;;5040708;28;20283;-63
2023/02/25 11:05:24;;;;;;;13.03;7.00;;;;;;;;;;5049534;28;20757;-63
2023/02/25 11:07:54;;;;;;;13.30;7.20;;;;;;;;;;5042582;28;20210;-63
2023/02/25 11:10:22;;;;;;;13.23;7.13;;;;;;;;;;5040832;28;20234;-63
2023/02/25 11:12:52;;;;;;;9.53;6.30;;;;;;;;;;5040783;28;20232;-64
2023/02/25 11:15:33;;;;;;;13.93;6.70;;;;;;;;;;5040815;28;20227;-64
2023/02/25 11:18:20;;;;;;;10.50;6.83;;;;;;;;;;5040745;28;20211;-63
2023/02/25 11:20:50;;;;;;;12.43;6.37;;;;;;;;;;5052399;28;20208;-63
2023/02/25 11:23:22;;;;;;;11.37;7.03;;;;;;;;;;5049528;28;20258;-63
2023/02/25 11:25:52;;;;;;;13.80;6.83;;;;;;;;;;5060731;28;20237;-63
2023/02/25 11:28:26;;;;;;;12.70;6.97;;;;;;;;;;5060838;28;20214;-63
2023/02/25 11:30:55;;;;;;;12.97;6.60;;;;;;;;;;5060393;28;20210;-63
2023/02/25 11:33:25;;;;;;;9.90;6.27;;;;;;;;;;5060563;28;20230;-63
2023/02/25 11:35:56;;;;;;;17.10;6.37;;;;;;;;;;5058192;28;20275;-63
2023/02/25 11:38:27;;;;;;;11.10;7.17;;;;;;;;;;5059443;28;20641;-63
2023/02/25 11:40:55;;;;;;;16.43;7.13;;;;;;;;;;5054174;28;20214;-63
2023/02/25 11:43:24;;;;;;;12.37;7.13;;;;;;;;;;5059932;28;20262;-63
2023/02/25 11:45:54;;;;;;;11.87;7.53;;;;;;;;;;5060234;28;20199;-63
2023/02/25 11:48:24;;;;;;;12.90;7.40;;;;;;;;;;5059953;28;20207;-63
2023/02/25 11:51:05;;;;;;;18.10;7.67;;;;;;;;;;5060228;28;20210;-63
2023/02/25 11:53:53;;;;;;;12.77;7.63;;;;;;;;;;5059973;28;20230;-63
2023/02/25 11:56:26;;;;;;;13.27;6.33;;;;;;;;;;5054647;28;20233;-63
2023/02/25 11:58:57;;;;;;;11.93;6.77;;;;;;;;;;5049915;28;20291;-63
2023/02/25 12:01:34;;;;;;;13.50;7.20;;;;;;;;;;5039689;28;20207;-63
2023/02/25 12:04:16;;;;;;;13.27;6.93;;;;;;;;;;5040024;28;20230;-63
2023/02/25 12:06:52;;;;;;;10.70;7.20;;;;;;;;;;5039839;28;20673;-64
2023/02/25 12:09:32;;;;;;;10.83;7.67;;;;;;;;;;5040753;28;20238;-63
2023/02/25 12:12:13;;;;;;;12.63;7.37;;;;;;;;;;5039759;28;20242;-63
2023/02/25 12:14:59;;;;;;;12.10;7.23;;;;;;;;;;5051434;28;20262;-63
2023/02/25 12:17:42;;;;;;;10.20;7.40;;;;;;;;;;5059453;28;20263;-63
2023/02/25 12:20:28;;;;;;;12.47;7.80;;;;;;;;;;5059510;28;20206;-62
2023/02/25 12:23:14;;;;;;;15.60;7.57;;;;;;;;;;5039379;28;20257;-63
2023/02/25 12:25:47;;;;;;;8.30;6.33;;;;;;;;;;5039570;28;20204;-63
2023/02/25 12:28:44;;;;;;;11.27;6.63;;;;;;;;;;5039338;28;20581;-63
2023/02/25 12:31:18;;;;;;;14.10;7.07;;;;;;;;;;5042177;28;20215;-63
2023/02/25 12:34:01;;;;;;;11.27;6.80;;;;;;;;;;5058771;28;20218;-63
2023/02/25 12:36:44;;;;;;;9.67;6.43;;;;;;;;;;5058904;28;20285;-64
2023/02/25 12:39:36;;;;;;;9.80;6.50;;;;;;;;;;5051434;28;20618;-63
2023/02/25 12:42:13;;;;;;;11.30;7.27;;;;;;;;;;5039175;28;20235;-63
2023/02/25 12:44:51;;;;;;;10.17;6.70;;;;;;;;;;5039746;28;20314;-63
2023/02/25 12:47:35;;;;;;;14.87;7.27;;;;;;;;;;5039143;28;20585;-63
2023/02/25 12:50:26;;;;;;;8.03;6.00;;;;;;;;;;5038906;28;20226;-62
2023/02/25 12:53:03;;;;;;;10.17;7.13;;;;;;;;;;5038202;28;20231;-63
2023/02/25 12:55:52;;;;;;;9.77;7.33;;;;;;;;;;5038725;28;20646;-62
2023/02/25 12:58:35;;;;;;;8.10;6.17;;;;;;;;;;5037111;28;20257;-62
2023/02/25 13:01:12;;;;;;;11.93;7.80;;;;;;;;;;5034015;28;20569;-61
2023/02/25 13:03:55;;;;;;;13.00;7.33;;;;;;;;;;5039005;28;20238;-61
2023/02/25 13:06:41;;;;;;;13.40;7.37;;;;;;;;;;5051321;28;20262;-62
2023/02/25 13:09:14;;;;;;;14.77;7.70;;;;;;;;;;5038633;28;20922;-62
2023/02/25 13:11:47;;;;;;;10.27;7.10;;;;;;;;;;5038824;28;20246;-62
2023/02/25 13:14:43;;;;;;;12.33;7.50;;;;;;;;;;5038519;28;20232;-62
2023/02/25 13:17:25;;;;;;;9.90;7.23;;;;;;;;;;5038364;28;20231;-62
2023/02/25 13:20:11;;;;;;;10.03;7.07;;;;;;;;;;5047108;28;20214;-62
2023/02/25 13:22:45;;;;;;;8.40;5.93;;;;;;;;;;5051718;28;20276;-62
2023/02/25 13:25:15;;;;;;;12.20;6.53;;;;;;;;;;5057906;28;20235;-62
2023/02/25 13:27:51;;;;;;;11.73;6.80;;;;;;;;;;5058256;28;20214;-62
2023/02/25 13:30:33;;;;;;;12.17;6.70;;;;;;;;;;5057949;28;20214;-62
2023/02/25 13:33:10;;;;;;;9.97;6.60;;;;;;;;;;5057941;28;20230;-62
2023/02/25 13:35:43;;;;;;;10.73;6.70;;;;;;;;;;5053209;28;20789;-61
2023/02/25 13:38:23;;;;;;;9.17;6.17;;;;;;;;;;5057802;28;20258;-62
2023/02/25 13:40:58;;;;;;;13.13;6.90;;;;;;;;;;5037916;28;20290;-62
2023/02/25 13:43:44;;;;;;;13.37;5.93;;;;;;;;;;5037725;28;20226;-62
2023/02/25 13:46:24;;;;;;;8.40;5.60;;;;;;;;;;5034366;28;20239;-62
2023/02/25 13:49:22;;;;;;;11.40;6.77;;;;;;;;;;5038111;28;20207;-62
2023/02/25 13:52:06;;;;;;;14.20;6.50;;;;;;;;;;5015833;28;20247;-62
2023/02/25 13:54:44;;;;;;;9.50;6.20;;;;;;;;;;5035271;28;20267;-62
2023/02/25 13:57:20;;;;;;;8.80;5.97;;;;;;;;;;5054318;28;20280;-62
2023/02/25 13:59:55;;;;;;;7.83;5.67;;;;;;;;;;5057533;28;20543;-62
2023/02/25 14:02:35;;;;;;;7.63;5.13;;;;;;;;;;5057521;28;20210;-62
2023/02/25 14:05:18;;;;;;;9.53;5.10;;;;;;;;;;5057360;28;20206;-62
2023/02/25 14:08:08;;;;;;;8.10;5.63;;;;;;;;;;5056818;28;20210;-61
2023/02/25 14:10:45;;;;;;;9.27;5.60;;;;;;;;;;5057375;28;20552;-62
2023/02/25 14:13:32;;;;;;;7.13;5.40;;;;;;;;;;5050273;28;20683;-62
2023/02/25 14:16:05;;;;;;;8.80;5.20;;;;;;;;;;5037629;28;20218;-62
2023/02/25 14:18:43;;;;;;;8.33;5.57;;;;;;;;;;5037781;28;20223;-62
2023/02/25 14:21:22;;;;;;;10.73;5.70;;;;;;;;;;5037699;28;20245;-62
2023/02/25 14:23:55;;;;;;;6.87;5.30;;;;;;;;;;5037325;28;20227;-62
2023/02/25 14:26:29;;;;;;;9.47;5.83;;;;;;;;;;5037629;28;20213;-62
2023/02/25 14:29:06;;;;;;;9.47;4.30;;;;;;;;;;5037244;28;20291;-66
2023/02/25 14:31:40;;;;;;;7.17;4.67;;;;;;;;;;5056190;28;20206;-62
2023/02/25 14:34:18;;;;;;;6.63;4.33;;;;;;;;;;5057237;28;20313;-63
2023/02/25 14:36:52;;;;;;;7.07;4.53;;;;;;;;;;5055880;28;20273;-61
2023/02/25 14:39:30;;;;;;;7.97;4.57;;;;;;;;;;5048666;28;20284;-62
2023/02/25 14:42:05;;;;;;;7.23;4.43;;;;;;;;;;5037154;28;20261;-61
2023/02/25 14:44:36;;;;;;;7.97;5.23;;;;;;;;;;5037044;28;20258;-62
2023/02/25 14:47:07;;;;;;;8.93;4.97;;;;;;;;;;5043767;28;20728;-62
2023/02/25 14:49:38;;;;;;;8.77;5.17;;;;;;;;;;5057047;28;20266;-61
2023/02/25 14:52:14;;;;;;;7.73;4.93;;;;;;;;;;5057198;28;20210;-62
2023/02/25 14:55:00;;;;;;;8.77;4.77;;;;;;;;;;5056713;28;20227;-62
2023/02/25 14:57:43;;;;;;;10.43;5.33;;;;;;;;;;5056759;28;20589;-62
2023/02/25 15:00:24;;;;;;;7.70;4.57;;;;;;;;;;5024709;28;20213;-62
2023/02/25 15:02:59;;;;;;;6.43;5.00;;;;;;;;;;5056554;28;20710;-61
2023/02/25 15:05:49;;;;;;;6.80;4.00;;;;;;;;;;5046364;28;20689;-61
2023/02/25 15:08:23;;;;;;;7.83;4.57;;;;;;;;;;5037067;28;20217;-61